Menoken, North Dakota
Current Conditions -  °F | °C
As of 10:01 AM on Wednesday 26 Nov 2014 (Local Time) from KBIS Reporting Station
Light Snow Light Snow  
Wind Chill: -2°   Ceiling: 3700
Heat Index:   Visibility: 4mi
Dew Point:   Wind: 6mph
Humidity: 76%   Direction: 70°ENE
Pressure: 30.36"   Gusts: NA
Location:  46.82°N, 100.53°W
Report Text: KBIS 261601Z 07005KT 4SM -SN BKN037 OVC048 M13/M17 A3036 RMK AO2 P0000 T11331167
Loading
Personal Weather Stations






























Interactive Weather Map New forecast layout! Learn more

10-Day Weather Forecast

Advertisements
Track Severe Weather on mobile